Time;durP1;ratioP1;P1;durP2;ratioP2;P2;SDS_P1;SDS_P2;PMS_P1;PMS_P2;Temp;Humidity;BMP_temperature;BMP_pressure;BME280_temperature;BME280_humidity;BME280_pressure;Samples;Min_cycle;Max_cycle;Signal;HPM_P1;HPM_P2
2022/03/04 00:01:54;;;;;;;;;;;4.40;71.80;;;;;;2351021;57;20086;-73
2022/03/04 00:04:21;;;;;;;;;;;4.40;71.80;;;;;;2350205;57;20106;-73
2022/03/04 00:06:47;;;;;;;;;;;4.30;71.70;;;;;;2349929;57;20074;-73
2022/03/04 00:09:14;;;;;;;;;;;4.30;71.70;;;;;;2350098;57;20074;-73
2022/03/04 00:11:40;;;;;;;;;;;4.30;71.90;;;;;;2350402;56;20070;-73
2022/03/04 00:14:08;;;;;;;;;;;4.30;71.90;;;;;;2350901;57;20376;-73
2022/03/04 00:16:34;;;;;;;;;;;4.30;72.00;;;;;;2351030;57;20099;-73
2022/03/04 00:19:07;;;;;;;;;;;4.40;72.10;;;;;;2350247;57;20082;-73
2022/03/04 00:21:34;;;;;;;;;;;4.40;72.00;;;;;;2349901;57;20090;-73
2022/03/04 00:24:01;;;;;;;;;;;4.40;72.00;;;;;;2350376;57;20125;-73
2022/03/04 00:26:27;;;;;;;;;;;4.40;71.80;;;;;;2350040;57;20094;-73
2022/03/04 00:28:54;;;;;;;;;;;4.40;71.80;;;;;;2350508;57;20364;-73
2022/03/04 00:31:20;;;;;;;;;;;4.40;71.70;;;;;;2349589;57;20140;-73
2022/03/04 00:33:47;;;;;;;;;;;4.40;71.70;;;;;;2349540;57;20074;-73
2022/03/04 00:36:13;;;;;;;;;;;4.40;71.90;;;;;;2349919;57;20086;-73
2022/03/04 00:38:40;;;;;;;;;;;4.40;71.90;;;;;;2349582;57;20189;-73
2022/03/04 00:41:06;;;;;;;;;;;4.40;71.90;;;;;;2597232;52;20153;-73
2022/03/04 00:43:33;;;;;;;;;;;4.50;71.90;;;;;;2348828;57;20089;-73
2022/03/04 00:45:59;;;;;;;;;;;4.50;71.80;;;;;;2348742;57;20136;-73
2022/03/04 00:48:26;;;;;;;;;;;4.60;71.70;;;;;;2360481;52;20174;-76
2022/03/04 00:50:52;;;;;;;;;;;4.60;71.20;;;;;;2362873;57;20053;-76
2022/03/04 00:53:19;;;;;;;;;;;4.60;70.90;;;;;;2366994;57;20149;-76
2022/03/04 00:55:45;;;;;;;;;;;4.60;70.60;;;;;;2366097;57;20138;-76
2022/03/04 00:58:12;;;;;;;;;;;4.50;70.60;;;;;;2366472;57;20074;-76
2022/03/04 01:00:38;;;;;;;;;;;4.50;70.90;;;;;;2366443;57;20078;-76
2022/03/04 01:03:05;;;;;;;;;;;4.50;71.00;;;;;;2366810;57;20112;-76
2022/03/04 01:05:31;;;;;;;;;;;4.50;71.80;;;;;;2366502;57;20077;-76
2022/03/04 01:07:58;;;;;;;;;;;4.50;71.10;;;;;;2366983;57;20761;-76
2022/03/04 01:10:24;;;;;;;;;;;4.50;71.00;;;;;;2366301;57;20101;-76
2022/03/04 01:12:51;;;;;;;;;;;4.50;71.10;;;;;;2366455;57;20078;-76
2022/03/04 01:15:18;;;;;;;;;;;4.50;71.10;;;;;;2366190;57;20109;-76
2022/03/04 01:17:44;;;;;;;;;;;4.50;71.00;;;;;;2366727;57;20138;-76
2022/03/04 01:20:11;;;;;;;;;;;4.50;71.00;;;;;;2366281;57;20753;-76
2022/03/04 01:22:37;;;;;;;;;;;4.50;71.10;;;;;;2366731;57;20407;-76
2022/03/04 01:25:05;;;;;;;;;;;4.50;71.10;;;;;;2366875;57;20086;-76
2022/03/04 01:27:31;;;;;;;;;;;4.50;71.10;;;;;;2367025;57;20081;-76
2022/03/04 01:29:58;;;;;;;;;;;4.50;71.00;;;;;;2366142;57;20085;-76
2022/03/04 01:32:24;;;;;;;;;;;4.50;70.90;;;;;;2366543;57;20312;-76
2022/03/04 01:34:51;;;;;;;;;;;4.50;70.90;;;;;;2366867;57;20182;-76
2022/03/04 01:37:17;;;;;;;;;;;4.50;71.00;;;;;;2366735;57;20114;-76
2022/03/04 01:39:44;;;;;;;;;;;4.40;70.80;;;;;;2365888;57;20077;-76
2022/03/04 01:42:10;;;;;;;;;;;4.40;70.90;;;;;;2366113;57;20133;-76
2022/03/04 01:44:37;;;;;;;;;;;4.40;70.90;;;;;;2366581;57;20148;-76
2022/03/04 01:47:04;;;;;;;;;;;4.40;71.00;;;;;;2366335;57;20369;-76
2022/03/04 01:49:31;;;;;;;;;;;4.40;71.00;;;;;;2377418;56;20348;-76
2022/03/04 01:51:58;;;;;;;;;;;4.40;71.00;;;;;;2400343;56;20088;-76
2022/03/04 01:54:24;;;;;;;;;;;4.40;71.00;;;;;;2494569;52;20140;-76
2022/03/04 01:56:51;;;;;;;;;;;4.40;71.20;;;;;;2399315;56;20125;-75
2022/03/04 01:59:17;;;;;;;;;;;4.50;71.30;;;;;;2399964;56;20223;-76
2022/03/04 02:01:44;;;;;;;;;;;4.50;70.90;;;;;;2400277;56;20327;-76
2022/03/04 02:04:10;;;;;;;;;;;4.50;70.70;;;;;;2400183;56;20117;-75
2022/03/04 02:06:37;;;;;;;;;;;4.50;70.70;;;;;;2400262;56;20312;-76
2022/03/04 02:09:04;;;;;;;;;;;4.40;70.60;;;;;;2400094;56;20076;-76
2022/03/04 02:11:30;;;;;;;;;;;4.40;70.70;;;;;;2494190;52;20077;-76
2022/03/04 02:13:57;;;;;;;;;;;4.40;70.60;;;;;;2399466;56;20089;-75
2022/03/04 02:16:26;;;;;;;;;;;4.30;71.40;;;;;;2399561;56;20117;-76
2022/03/04 02:18:53;;;;;;;;;;;4.40;70.80;;;;;;2399602;56;20080;-76
2022/03/04 02:21:23;;;;;;;;;;;4.30;70.90;;;;;;2399585;56;20080;-76
2022/03/04 02:23:49;;;;;;;;;;;4.30;70.90;;;;;;2400254;56;20164;-75
2022/03/04 02:26:16;;;;;;;;;;;4.40;71.30;;;;;;2400222;56;20132;-76
2022/03/04 02:28:42;;;;;;;;;;;4.30;70.80;;;;;;2403419;52;20076;-76
2022/03/04 02:31:09;;;;;;;;;;;4.30;71.60;;;;;;2400116;56;20049;-76
2022/03/04 02:33:35;;;;;;;;;;;4.30;70.90;;;;;;2400239;56;20100;-76
2022/03/04 02:36:02;;;;;;;;;;;4.30;71.00;;;;;;2399960;56;20147;-76
2022/03/04 02:38:28;;;;;;;;;;;4.30;71.00;;;;;;2399890;56;20089;-76
2022/03/04 02:40:55;;;;;;;;;;;4.30;70.90;;;;;;2399292;56;20073;-76
2022/03/04 02:43:21;;;;;;;;;;;4.30;71.10;;;;;;2400240;56;20109;-76
2022/03/04 02:45:49;;;;;;;;;;;4.30;71.00;;;;;;2399125;56;20120;-76
2022/03/04 02:48:15;;;;;;;;;;;4.30;71.00;;;;;;2399793;56;20089;-76
2022/03/04 02:50:42;;;;;;;;;;;4.30;70.80;;;;;;2399401;56;20089;-75
2022/03/04 02:53:09;;;;;;;;;;;4.30;70.20;;;;;;2400176;56;20117;-76
2022/03/04 02:55:35;;;;;;;;;;;4.30;70.50;;;;;;2399647;56;20084;-76
2022/03/04 02:58:02;;;;;;;;;;;4.30;70.70;;;;;;2400404;56;20148;-76
2022/03/04 03:00:29;;;;;;;;;;;4.30;70.90;;;;;;2399721;56;20101;-76
2022/03/04 03:02:55;;;;;;;;;;;4.30;70.80;;;;;;2400303;56;20152;-76
2022/03/04 03:05:22;;;;;;;;;;;4.30;70.50;;;;;;2399984;56;20076;-76
2022/03/04 03:07:48;;;;;;;;;;;4.30;70.00;;;;;;2421141;52;20061;-75
2022/03/04 03:10:15;;;;;;;;;;;4.30;70.10;;;;;;2399454;56;20352;-75
2022/03/04 03:12:42;;;;;;;;;;;4.20;70.20;;;;;;2399951;56;20140;-75
2022/03/04 03:15:10;;;;;;;;;;;4.20;70.60;;;;;;2400405;56;20117;-75
2022/03/04 03:17:36;;;;;;;;;;;4.30;70.90;;;;;;2400521;56;20144;-75
2022/03/04 03:20:03;;;;;;;;;;;4.30;71.00;;;;;;2399791;56;20069;-75
2022/03/04 03:22:30;;;;;;;;;;;4.30;70.50;;;;;;2400058;56;20077;-75
2022/03/04 03:24:56;;;;;;;;;;;4.30;70.50;;;;;;2400344;56;20149;-75
2022/03/04 03:27:23;;;;;;;;;;;4.30;70.60;;;;;;2399311;56;20108;-75
2022/03/04 03:29:49;;;;;;;;;;;4.30;70.60;;;;;;2399345;56;20152;-75
2022/03/04 03:32:16;;;;;;;;;;;4.20;70.80;;;;;;2399803;56;20129;-75
2022/03/04 03:34:45;;;;;;;;;;;4.30;70.50;;;;;;2420006;52;20132;-75
2022/03/04 03:37:11;;;;;;;;;;;4.20;70.70;;;;;;2400160;56;20053;-74
2022/03/04 03:39:38;;;;;;;;;;;4.20;70.50;;;;;;2400011;56;20394;-75
2022/03/04 03:42:05;;;;;;;;;;;4.20;70.40;;;;;;2399847;56;20132;-77
2022/03/04 03:44:32;;;;;;;;;;;4.20;70.40;;;;;;2400083;56;20073;-75
2022/03/04 03:46:58;;;;;;;;;;;4.10;70.70;;;;;;2398957;56;20081;-75
2022/03/04 03:49:25;;;;;;;;;;;4.10;71.00;;;;;;2399722;56;20368;-77
2022/03/04 03:51:51;;;;;;;;;;;4.10;71.00;;;;;;2399846;56;20131;-75
2022/03/04 03:54:18;;;;;;;;;;;4.10;70.90;;;;;;2400534;56;20400;-75
2022/03/04 03:56:44;;;;;;;;;;;4.20;70.90;;;;;;2400032;56;20049;-75
2022/03/04 03:59:11;;;;;;;;;;;4.20;70.80;;;;;;2399268;56;20296;-75
2022/03/04 04:01:38;;;;;;;;;;;4.20;70.50;;;;;;2400106;56;20077;-75
2022/03/04 04:04:06;;;;;;;;;;;4.30;70.60;;;;;;2399391;56;20060;-77
2022/03/04 04:06:32;;;;;;;;;;;4.30;70.90;;;;;;2400269;56;20163;-75
2022/03/04 04:09:00;;;;;;;;;;;4.20;70.50;;;;;;2400250;56;20076;-75
2022/03/04 04:11:27;;;;;;;;;;;4.20;70.70;;;;;;2399705;56;20064;-75
2022/03/04 04:13:54;;;;;;;;;;;4.20;70.80;;;;;;2400232;56;20065;-75
2022/03/04 04:16:20;;;;;;;;;;;4.20;70.80;;;;;;2399825;56;20064;-77
2022/03/04 04:18:47;;;;;;;;;;;4.20;70.90;;;;;;2398852;56;20080;-75
2022/03/04 04:21:13;;;;;;;;;;;4.20;70.90;;;;;;2456341;52;20121;-75
2022/03/04 04:23:40;;;;;;;;;;;4.10;70.80;;;;;;2400148;56;20148;-75
2022/03/04 04:26:08;;;;;;;;;;;4.10;71.00;;;;;;2400648;56;20160;-75
2022/03/04 04:28:35;;;;;;;;;;;4.00;71.20;;;;;;2400280;56;20072;-75
2022/03/04 04:31:02;;;;;;;;;;;4.00;72.30;;;;;;2399996;56;20141;-75
2022/03/04 04:33:31;;;;;;;;;;;4.00;71.80;;;;;;2589766;52;20490;-75
2022/03/04 04:35:57;;;;;;;;;;;4.00;71.70;;;;;;2399537;56;20159;-74
2022/03/04 04:38:24;;;;;;;;;;;4.00;71.40;;;;;;2399305;56;20085;-74
2022/03/04 04:40:50;;;;;;;;;;;4.10;71.50;;;;;;2400098;56;20060;-75
2022/03/04 04:43:17;;;;;;;;;;;4.10;71.20;;;;;;2450408;52;20068;-76
2022/03/04 04:45:43;;;;;;;;;;;4.10;71.10;;;;;;2400449;56;20117;-75
2022/03/04 04:48:10;;;;;;;;;;;4.10;71.20;;;;;;2398461;56;20515;-75
2022/03/04 04:50:36;;;;;;;;;;;4.10;71.40;;;;;;2392990;56;20367;-76
2022/03/04 04:53:03;;;;;;;;;;;4.00;71.30;;;;;;2384080;56;20288;-75
2022/03/04 04:55:30;;;;;;;;;;;4.00;71.20;;;;;;2384377;56;20180;-76
2022/03/04 04:57:56;;;;;;;;;;;4.00;71.10;;;;;;2384001;56;20049;-76
2022/03/04 05:00:23;;;;;;;;;;;4.00;71.10;;;;;;2383030;56;20050;-75
2022/03/04 05:02:49;;;;;;;;;;;4.00;71.10;;;;;;2383778;56;20093;-75
2022/03/04 05:05:15;;;;;;;;;;;4.00;71.50;;;;;;2383815;56;20081;-76
2022/03/04 05:07:42;;;;;;;;;;;4.00;71.40;;;;;;2383715;56;20277;-76
2022/03/04 05:10:09;;;;;;;;;;;4.00;71.50;;;;;;2381636;56;20080;-77
2022/03/04 05:12:35;;;;;;;;;;;4.00;71.50;;;;;;2383472;56;20141;-75
2022/03/04 05:15:02;;;;;;;;;;;4.00;71.70;;;;;;2383014;56;20129;-75
2022/03/04 05:17:29;;;;;;;;;;;4.00;71.50;;;;;;2383072;56;20152;-75
2022/03/04 05:19:55;;;;;;;;;;;4.00;72.00;;;;;;2383442;56;20136;-76
2022/03/04 05:22:22;;;;;;;;;;;4.00;72.50;;;;;;2382732;56;20092;-75
2022/03/04 05:24:48;;;;;;;;;;;4.00;71.70;;;;;;2383751;56;20124;-75
2022/03/04 05:27:14;;;;;;;;;;;4.00;71.70;;;;;;2384375;56;20073;-76
2022/03/04 05:29:41;;;;;;;;;;;4.00;71.70;;;;;;2383934;56;20125;-75
2022/03/04 05:32:08;;;;;;;;;;;4.00;71.70;;;;;;2415818;52;20085;-75
2022/03/04 05:34:35;;;;;;;;;;;4.00;71.70;;;;;;2384364;56;20109;-75
2022/03/04 05:37:01;;;;;;;;;;;3.90;71.60;;;;;;2384339;56;20065;-76
2022/03/04 05:39:28;;;;;;;;;;;3.90;71.60;;;;;;2383434;56;20109;-75
2022/03/04 05:41:54;;;;;;;;;;;3.90;71.60;;;;;;2384323;56;20156;-75
2022/03/04 05:44:21;;;;;;;;;;;3.90;71.60;;;;;;2387830;52;20089;-75
2022/03/04 05:46:47;;;;;;;;;;;3.80;71.70;;;;;;2384593;56;20113;-75
2022/03/04 05:49:14;;;;;;;;;;;3.80;71.50;;;;;;2384050;56;20085;-75
2022/03/04 05:51:40;;;;;;;;;;;3.80;71.50;;;;;;2490250;52;20077;-76
2022/03/04 05:54:07;;;;;;;;;;;3.80;71.70;;;;;;2383199;56;20118;-75
2022/03/04 05:56:33;;;;;;;;;;;3.80;71.40;;;;;;2382558;56;20450;-75
2022/03/04 05:59:00;;;;;;;;;;;3.80;71.40;;;;;;2383522;56;20278;-75
2022/03/04 06:01:26;;;;;;;;;;;3.70;71.30;;;;;;2383888;56;20070;-75
2022/03/04 06:03:53;;;;;;;;;;;3.70;71.70;;;;;;2383693;56;20124;-76
2022/03/04 06:06:20;;;;;;;;;;;3.70;71.90;;;;;;2384760;56;20136;-76
2022/03/04 06:08:47;;;;;;;;;;;3.70;72.00;;;;;;2383732;56;20069;-76
2022/03/04 06:13:51;;;;;;;;;;;3.80;72.10;;;;;;2363389;57;20336;-80
2022/03/04 06:16:20;;;;;;;;;;;3.80;71.70;;;;;;2382403;56;20061;-80
2022/03/04 06:18:46;;;;;;;;;;;3.80;72.00;;;;;;2389328;56;20073;-79
2022/03/04 06:21:12;;;;;;;;;;;3.70;71.70;;;;;;2410549;56;20077;-80
2022/03/04 06:23:39;;;;;;;;;;;3.80;72.00;;;;;;2410971;56;20065;-80
2022/03/04 06:26:05;;;;;;;;;;;3.80;72.00;;;;;;2413978;52;20080;-79
2022/03/04 06:28:32;;;;;;;;;;;3.90;71.90;;;;;;2409562;56;20121;-80
2022/03/04 06:30:58;;;;;;;;;;;3.80;71.50;;;;;;2439127;52;20218;-80
2022/03/04 06:33:30;;;;;;;;;;;3.90;71.50;;;;;;2468331;52;20089;-79
2022/03/04 06:35:59;;;;;;;;;;;3.90;71.50;;;;;;2410706;56;20320;-80
2022/03/04 06:38:26;;;;;;;;;;;3.90;71.50;;;;;;2410826;56;20207;-80
2022/03/04 06:40:52;;;;;;;;;;;3.90;71.60;;;;;;2410558;52;20115;-80
2022/03/04 06:43:19;;;;;;;;;;;3.90;71.60;;;;;;2412782;52;20140;-80
2022/03/04 06:45:47;;;;;;;;;;;3.90;71.80;;;;;;2410933;52;20620;-80
2022/03/04 06:50:49;;;;;;;;;;;4.00;71.80;;;;;;2351255;57;20062;-77
2022/03/04 06:53:16;;;;;;;;;;;4.10;72.10;;;;;;2349961;57;20068;-77
2022/03/04 06:55:42;;;;;;;;;;;4.10;72.10;;;;;;2350301;57;20063;-77
2022/03/04 06:58:09;;;;;;;;;;;4.10;71.90;;;;;;2351276;57;20086;-77
2022/03/04 07:00:36;;;;;;;;;;;4.10;71.70;;;;;;2350493;57;20065;-77
2022/03/04 07:03:03;;;;;;;;;;;4.10;71.40;;;;;;2351311;57;20054;-77
2022/03/04 07:05:30;;;;;;;;;;;4.10;72.20;;;;;;2350266;57;20067;-77
2022/03/04 07:07:56;;;;;;;;;;;4.10;71.30;;;;;;2360073;53;20436;-77
2022/03/04 07:10:23;;;;;;;;;;;4.00;71.10;;;;;;2350400;57;20066;-77
2022/03/04 07:12:50;;;;;;;;;;;4.00;71.00;;;;;;2350732;57;20078;-77
2022/03/04 07:15:17;;;;;;;;;;;4.00;71.40;;;;;;2351017;57;20113;-77
2022/03/04 07:17:43;;;;;;;;;;;4.00;71.70;;;;;;2350795;57;20197;-76
2022/03/04 07:20:10;;;;;;;;;;;4.10;71.90;;;;;;2350319;57;20081;-77
2022/03/04 07:22:37;;;;;;;;;;;4.10;71.90;;;;;;2351335;53;20054;-77
2022/03/04 07:25:03;;;;;;;;;;;4.10;71.70;;;;;;2350350;57;20118;-77
2022/03/04 07:27:30;;;;;;;;;;;4.10;71.60;;;;;;2351010;57;20070;-77
2022/03/04 07:29:56;;;;;;;;;;;4.10;71.70;;;;;;2350696;57;20113;-77
2022/03/04 07:32:23;;;;;;;;;;;4.20;72.10;;;;;;2351232;57;20132;-77
2022/03/04 07:34:49;;;;;;;;;;;4.20;72.00;;;;;;2358095;53;20313;-77
2022/03/04 07:37:16;;;;;;;;;;;4.20;72.20;;;;;;2350783;57;20118;-77
2022/03/04 07:39:42;;;;;;;;;;;4.30;72.10;;;;;;2350959;57;20137;-77
2022/03/04 07:42:09;;;;;;;;;;;4.30;72.00;;;;;;2350753;57;20400;-77
2022/03/04 07:44:35;;;;;;;;;;;4.30;71.80;;;;;;2349485;57;20133;-76
2022/03/04 07:47:02;;;;;;;;;;;4.30;71.70;;;;;;2350905;57;20082;-77
2022/03/04 07:49:29;;;;;;;;;;;4.30;71.80;;;;;;2350087;57;20130;-77
2022/03/04 07:51:55;;;;;;;;;;;4.40;72.10;;;;;;2349597;57;20283;-77
2022/03/04 07:54:22;;;;;;;;;;;4.40;72.10;;;;;;2350493;57;20078;-77
2022/03/04 07:56:48;;;;;;;;;;;4.40;72.10;;;;;;2350368;57;20373;-77
2022/03/04 07:59:15;;;;;;;;;;;4.40;72.00;;;;;;2353744;53;20082;-76
2022/03/04 08:01:41;;;;;;;;;;;4.50;72.10;;;;;;2356181;53;20083;-77
2022/03/04 08:04:10;;;;;;;;;;;4.50;72.00;;;;;;2347882;57;20333;-77
2022/03/04 08:06:36;;;;;;;;;;;4.50;72.00;;;;;;2349424;57;20090;-77
2022/03/04 08:09:03;;;;;;;;;;;4.50;72.20;;;;;;2349187;57;20075;-77
2022/03/04 08:11:29;;;;;;;;;;;4.60;72.20;;;;;;2349138;57;20074;-77
2022/03/04 08:13:55;;;;;;;;;;;4.60;72.90;;;;;;2350071;57;20182;-77
2022/03/04 08:16:24;;;;;;;;;;;4.60;72.20;;;;;;2358701;53;20066;-77
2022/03/04 08:18:51;;;;;;;;;;;4.60;72.10;;;;;;2349465;57;20110;-77
2022/03/04 08:21:18;;;;;;;;;;;4.60;72.60;;;;;;2349539;57;20075;-78
2022/03/04 08:23:44;;;;;;;;;;;4.70;72.60;;;;;;2349917;57;20078;-77
2022/03/04 08:26:11;;;;;;;;;;;4.80;72.70;;;;;;2349348;57;20151;-77
2022/03/04 08:28:38;;;;;;;;;;;4.80;72.60;;;;;;2349298;57;20378;-77
2022/03/04 08:31:10;;;;;;;;;;;4.90;72.60;;;;;;2347682;57;20077;-77
2022/03/04 08:33:40;;;;;;;;;;;4.90;72.40;;;;;;2349025;57;20054;-77
2022/03/04 08:36:07;;;;;;;;;;;5.00;72.50;;;;;;2349044;57;20086;-77
2022/03/04 08:38:33;;;;;;;;;;;5.00;72.40;;;;;;2349830;57;20141;-77
2022/03/04 08:41:00;;;;;;;;;;;5.00;72.20;;;;;;2358942;53;20069;-77
2022/03/04 08:43:26;;;;;;;;;;;5.10;72.30;;;;;;2349110;57;20082;-77
2022/03/04 08:45:53;;;;;;;;;;;5.10;72.40;;;;;;2349010;57;20329;-77
2022/03/04 08:48:19;;;;;;;;;;;5.10;72.10;;;;;;2348396;57;20134;-77
2022/03/04 08:50:46;;;;;;;;;;;5.20;72.20;;;;;;2361441;53;20126;-77
2022/03/04 08:53:12;;;;;;;;;;;5.20;72.30;;;;;;2349214;57;20090;-77
2022/03/04 08:55:42;;;;;;;;;;;5.20;72.50;;;;;;2349654;57;20153;-76
2022/03/04 08:58:08;;;;;;;;;;;5.30;72.40;;;;;;2349582;57;20301;-77
2022/03/04 09:00:35;;;;;;;;;;;5.30;72.20;;;;;;2381538;53;20071;-78
2022/03/04 09:03:01;;;;;;;;;;;5.40;72.40;;;;;;2349936;54;20216;-77
2022/03/04 09:05:29;;;;;;;;;;;5.40;72.30;;;;;;2349337;57;20126;-77
2022/03/04 09:07:55;;;;;;;;;;;5.50;72.50;;;;;;2349599;57;20123;-77
2022/03/04 09:10:22;;;;;;;;;;;5.50;72.50;;;;;;2349642;57;20109;-77
2022/03/04 09:12:48;;;;;;;;;;;5.50;72.50;;;;;;2349614;57;20086;-77
2022/03/04 09:15:15;;;;;;;;;;;5.60;72.60;;;;;;2349408;57;20409;-77
2022/03/04 09:17:41;;;;;;;;;;;5.60;72.40;;;;;;2349613;57;20130;-77
2022/03/04 09:20:09;;;;;;;;;;;5.60;72.50;;;;;;2349658;57;20082;-77
2022/03/04 09:22:35;;;;;;;;;;;5.70;73.30;;;;;;2349872;57;20066;-77
2022/03/04 09:25:02;;;;;;;;;;;5.80;72.50;;;;;;2349244;57;20051;-76
2022/03/04 09:27:29;;;;;;;;;;;5.90;72.40;;;;;;2349798;57;20130;-76
2022/03/04 09:29:55;;;;;;;;;;;5.90;72.20;;;;;;2349243;57;20098;-77
2022/03/04 09:32:23;;;;;;;;;;;6.00;72.40;;;;;;2499857;52;20137;-77
2022/03/04 09:34:50;;;;;;;;;;;6.10;72.10;;;;;;2365616;53;20193;-77
2022/03/04 09:37:16;;;;;;;;;;;6.10;71.90;;;;;;2348720;57;20082;-77
2022/03/04 09:39:43;;;;;;;;;;;6.20;72.70;;;;;;2348298;57;20333;-76
2022/03/04 09:42:11;;;;;;;;;;;6.20;71.80;;;;;;2349868;57;20129;-77
2022/03/04 09:44:38;;;;;;;;;;;6.30;71.90;;;;;;2396128;53;20177;-76
2022/03/04 09:47:05;;;;;;;;;;;6.40;71.80;;;;;;2370557;53;20094;-77
2022/03/04 09:49:32;;;;;;;;;;;6.40;71.70;;;;;;2349726;57;20122;-77
2022/03/04 09:51:59;;;;;;;;;;;6.40;71.50;;;;;;2350486;57;20083;-77
2022/03/04 09:54:27;;;;;;;;;;;6.40;71.30;;;;;;2350117;57;20127;-77
2022/03/04 09:56:54;;;;;;;;;;;6.50;71.50;;;;;;2350477;57;20138;-77
2022/03/04 09:59:20;;;;;;;;;;;6.50;71.40;;;;;;2456841;53;20066;-77
2022/03/04 10:01:47;;;;;;;;;;;6.60;71.40;;;;;;2349527;57;20095;-77
2022/03/04 10:04:14;;;;;;;;;;;6.60;71.10;;;;;;2349461;57;20082;-77
2022/03/04 10:06:46;;;;;;;;;;;6.60;71.20;;;;;;2350212;57;20134;-77
2022/03/04 10:09:13;;;;;;;;;;;6.70;71.10;;;;;;2349700;57;20301;-77
2022/03/04 10:11:39;;;;;;;;;;;6.70;71.10;;;;;;2350246;57;20065;-77
2022/03/04 10:14:08;;;;;;;;;;;6.70;71.20;;;;;;2349751;57;20327;-77
2022/03/04 10:16:35;;;;;;;;;;;6.80;71.40;;;;;;2349686;57;20083;-76
2022/03/04 10:19:06;;;;;;;;;;;6.90;71.60;;;;;;2348723;57;20137;-77
2022/03/04 10:21:44;;;;;;;;;;;6.90;71.30;;;;;;2349814;57;20157;-78
2022/03/04 10:24:10;;;;;;;;;;;7.00;71.30;;;;;;2350045;57;20106;-77
2022/03/04 10:26:37;;;;;;;;;;;7.10;71.10;;;;;;2349725;57;20113;-77
2022/03/04 10:29:15;;;;;;;;;;;7.10;70.90;;;;;;2356308;53;20354;-76
2022/03/04 10:32:06;;;;;;;;;;;7.10;70.50;;;;;;2349040;57;20083;-76
2022/03/04 10:34:42;;;;;;;;;;;7.20;70.60;;;;;;2364378;53;20078;-76
2022/03/04 10:37:08;;;;;;;;;;;7.20;70.50;;;;;;2349690;57;20067;-77
2022/03/04 10:39:35;;;;;;;;;;;7.20;70.40;;;;;;2349253;57;20059;-76
2022/03/04 10:42:01;;;;;;;;;;;7.30;70.40;;;;;;2349613;57;20082;-77
2022/03/04 10:44:29;;;;;;;;;;;7.30;70.10;;;;;;2349426;57;20070;-77
2022/03/04 10:46:56;;;;;;;;;;;7.30;70.10;;;;;;2349842;57;20106;-77
2022/03/04 10:49:24;;;;;;;;;;;7.40;71.00;;;;;;2347592;57;20082;-77
2022/03/04 10:51:50;;;;;;;;;;;7.40;70.20;;;;;;2346842;57;20082;-76
2022/03/04 10:54:18;;;;;;;;;;;7.40;70.30;;;;;;2348065;57;20094;-77
2022/03/04 10:56:48;;;;;;;;;;;7.50;70.20;;;;;;2347848;57;20805;-77
2022/03/04 10:59:14;;;;;;;;;;;7.50;70.10;;;;;;2347444;57;20090;-77
2022/03/04 11:01:46;;;;;;;;;;;7.60;70.10;;;;;;2348337;57;20079;-77
2022/03/04 11:04:12;;;;;;;;;;;7.60;70.20;;;;;;2347981;57;20067;-76
2022/03/04 11:06:39;;;;;;;;;;;7.70;69.90;;;;;;2348008;57;20102;-77
2022/03/04 11:09:05;;;;;;;;;;;7.70;69.90;;;;;;2377012;53;20145;-76
2022/03/04 11:11:33;;;;;;;;;;;7.70;69.50;;;;;;2348421;57;20078;-76
2022/03/04 11:14:00;;;;;;;;;;;7.70;69.40;;;;;;2348710;57;20090;-76
2022/03/04 11:16:26;;;;;;;;;;;7.80;69.60;;;;;;2381756;53;20186;-77
2022/03/04 11:18:54;;;;;;;;;;;7.80;68.90;;;;;;2349539;57;20106;-76
2022/03/04 11:21:21;;;;;;;;;;;7.80;68.90;;;;;;2349476;57;20133;-76
2022/03/04 11:23:47;;;;;;;;;;;7.80;68.70;;;;;;2349040;57;20103;-76
2022/03/04 11:26:20;;;;;;;;;;;7.80;68.70;;;;;;2378701;53;20121;-77
2022/03/04 11:28:49;;;;;;;;;;;7.90;68.70;;;;;;2349020;57;20141;-77
2022/03/04 11:31:16;;;;;;;;;;;7.80;68.40;;;;;;2348593;57;20197;-77
2022/03/04 11:33:44;;;;;;;;;;;7.80;68.30;;;;;;2349231;57;20067;-77
2022/03/04 11:36:13;;;;;;;;;;;7.80;67.90;;;;;;2349087;57;20154;-77
2022/03/04 11:39:11;;;;;;;;;;;7.80;67.80;;;;;;2349501;57;20121;-77
2022/03/04 11:41:39;;;;;;;;;;;7.80;67.60;;;;;;2349773;57;20078;-77
2022/03/04 11:44:17;;;;;;;;;;;7.80;67.40;;;;;;2461703;53;20078;-76
2022/03/04 11:46:48;;;;;;;;;;;7.80;67.40;;;;;;2350099;57;20067;-77
2022/03/04 11:49:29;;;;;;;;;;;7.70;67.30;;;;;;2349368;57;20360;-77
2022/03/04 11:55:27;;;;;;;;;;;7.80;67.10;;;;;;2359364;57;20327;-78
2022/03/04 11:58:01;;;;;;;;;;;7.70;67.20;;;;;;2252615;59;20344;-77
2022/03/04 12:03:19;;;;;;;;;;;7.70;67.80;;;;;;2366963;53;20064;-78
2022/03/04 12:05:47;;;;;;;;;;;7.80;67.80;;;;;;2385968;52;20069;-78
2022/03/04 12:08:14;;;;;;;;;;;7.80;67.60;;;;;;2377921;56;20340;-77
2022/03/04 12:10:45;;;;;;;;;;;7.80;67.30;;;;;;2392607;52;20136;-77
2022/03/04 12:13:13;;;;;;;;;;;7.90;68.10;;;;;;2406736;56;20135;-77
2022/03/04 12:15:41;;;;;;;;;;;8.00;67.60;;;;;;2406955;56;20133;-77
2022/03/04 12:18:08;;;;;;;;;;;8.00;67.40;;;;;;2407201;56;20072;-78
2022/03/04 12:20:53;;;;;;;;;;;8.00;67.60;;;;;;2421562;52;20064;-77
2022/03/04 12:23:27;;;;;;;;;;;8.10;67.60;;;;;;2406997;56;20131;-78
2022/03/04 12:26:13;;;;;;;;;;;8.20;67.60;;;;;;2406912;56;20105;-77
2022/03/04 12:28:44;;;;;;;;;;;8.30;67.20;;;;;;2410459;52;20359;-77
2022/03/04 12:31:14;;;;;;;;;;;8.40;67.00;;;;;;2406906;56;20124;-78
2022/03/04 12:33:41;;;;;;;;;;;8.50;66.60;;;;;;2407184;56;20069;-78
2022/03/04 12:36:09;;;;;;;;;;;8.50;66.20;;;;;;2434117;52;20183;-77
2022/03/04 12:38:38;;;;;;;;;;;8.60;65.50;;;;;;2406958;56;20324;-77
2022/03/04 12:41:05;;;;;;;;;;;8.50;65.10;;;;;;2406893;56;20080;-77
2022/03/04 12:43:31;;;;;;;;;;;8.50;65.00;;;;;;2425434;52;20068;-77
2022/03/04 12:45:58;;;;;;;;;;;8.50;64.90;;;;;;2407172;56;20315;-77
2022/03/04 12:48:44;;;;;;;;;;;8.50;64.80;;;;;;2474588;52;20064;-78
2022/03/04 12:51:21;;;;;;;;;;;8.50;64.80;;;;;;2520473;54;20370;-73
2022/03/04 12:53:47;;;;;;;;;;;8.50;64.80;;;;;;2301846;58;20179;-73
2022/03/04 12:56:14;;;;;;;;;;;8.50;65.10;;;;;;2301447;58;20181;-73
2022/03/04 12:58:43;;;;;;;;;;;8.50;65.30;;;;;;2300959;58;20072;-73
2022/03/04 13:01:10;;;;;;;;;;;8.60;65.20;;;;;;2301209;58;20796;-73
2022/03/04 13:03:37;;;;;;;;;;;8.60;65.30;;;;;;2301587;58;20159;-73
2022/03/04 13:06:03;;;;;;;;;;;8.60;65.20;;;;;;2301394;58;20068;-73
2022/03/04 13:08:31;;;;;;;;;;;8.70;65.20;;;;;;2301550;58;20080;-73
2022/03/04 13:11:10;;;;;;;;;;;8.60;64.80;;;;;;2537085;54;20088;-73
2022/03/04 13:13:44;;;;;;;;;;;8.70;64.70;;;;;;2300459;58;20084;-73
2022/03/04 13:16:10;;;;;;;;;;;8.70;64.60;;;;;;2537485;54;20168;-73
2022/03/04 13:18:37;;;;;;;;;;;8.70;64.80;;;;;;2300724;58;20311;-73
2022/03/04 13:21:04;;;;;;;;;;;8.70;64.80;;;;;;2300238;58;20139;-73
2022/03/04 13:23:31;;;;;;;;;;;8.70;64.80;;;;;;2300185;58;20052;-73
2022/03/04 13:26:04;;;;;;;;;;;8.80;64.40;;;;;;2537418;54;20057;-73
2022/03/04 13:28:50;;;;;;;;;;;8.80;64.30;;;;;;2300380;58;20064;-73
2022/03/04 13:31:21;;;;;;;;;;;8.80;64.40;;;;;;2299663;58;20068;-73
2022/03/04 13:33:47;;;;;;;;;;;8.90;63.90;;;;;;2300171;58;20144;-73
2022/03/04 13:36:14;;;;;;;;;;;8.90;63.60;;;;;;2299913;58;20180;-73
2022/03/04 13:38:41;;;;;;;;;;;9.00;63.40;;;;;;2300288;58;20147;-73
2022/03/04 13:41:20;;;;;;;;;;;9.00;64.50;;;;;;2299895;58;20107;-74
2022/03/04 13:43:46;;;;;;;;;;;9.10;64.10;;;;;;2300212;58;20080;-72
2022/03/04 13:46:13;;;;;;;;;;;9.20;63.90;;;;;;2299468;58;20529;-72
2022/03/04 13:48:39;;;;;;;;;;;9.30;63.50;;;;;;2300391;58;20388;-73
2022/03/04 13:51:11;;;;;;;;;;;9.30;63.90;;;;;;2300338;58;20088;-74
2022/03/04 13:53:54;;;;;;;;;;;9.40;62.50;;;;;;2300497;58;20091;-74
2022/03/04 13:56:21;;;;;;;;;;;9.40;62.10;;;;;;2298884;58;20112;-74
2022/03/04 14:01:48;;;;;;;;;;;9.40;61.30;;;;;;2300303;58;20359;-73
2022/03/04 14:04:19;;;;;;;;;;;9.40;61.20;;;;;;2299537;58;20096;-73
2022/03/04 14:06:47;;;;;;;;;;;9.40;61.40;;;;;;2300339;58;20162;-73
2022/03/04 14:09:14;;;;;;;;;;;9.40;61.20;;;;;;2300027;58;20060;-73
2022/03/04 14:11:40;;;;;;;;;;;9.40;61.30;;;;;;2299937;58;20355;-72
2022/03/04 14:14:15;;;;;;;;;;;9.40;61.60;;;;;;2299188;58;20124;-73
2022/03/04 14:16:49;;;;;;;;;;;9.40;61.50;;;;;;2299867;58;20064;-73
2022/03/04 14:21:51;;;;;;;;;;;9.40;60.50;;;;;;2338773;57;20061;-73
2022/03/04 14:24:18;;;;;;;;;;;9.30;60.60;;;;;;2349522;57;20098;-72
2022/03/04 14:26:44;;;;;;;;;;;9.40;60.80;;;;;;2349640;57;20110;-73
2022/03/04 14:29:11;;;;;;;;;;;9.30;60.30;;;;;;2349075;57;20236;-73
2022/03/04 14:31:37;;;;;;;;;;;9.30;58.70;;;;;;2348340;57;20077;-72
2022/03/04 14:34:04;;;;;;;;;;;9.20;58.10;;;;;;2349402;57;20086;-73
2022/03/04 14:36:31;;;;;;;;;;;9.30;56.70;;;;;;2348996;57;20082;-73
2022/03/04 14:38:58;;;;;;;;;;;9.20;56.40;;;;;;2349415;57;20074;-73
2022/03/04 14:41:24;;;;;;;;;;;9.10;56.80;;;;;;2349016;57;20083;-73
2022/03/04 14:43:51;;;;;;;;;;;9.10;56.40;;;;;;2349407;57;20090;-72
2022/03/04 14:46:17;;;;;;;;;;;9.20;56.90;;;;;;2349361;57;20129;-73
2022/03/04 14:48:46;;;;;;;;;;;9.20;56.90;;;;;;2348162;57;20082;-72
2022/03/04 14:51:12;;;;;;;;;;;9.20;55.40;;;;;;2348182;57;20145;-72